createdAt,value
2023-08-04T07:02:46.008Z,62.98
2023-08-04T07:05:32.905Z,63.79
2023-08-04T07:08:14.025Z,61.36
2023-08-04T07:11:00.884Z,62.19
2023-08-04T07:13:40.977Z,59.43
2023-08-04T07:16:28.860Z,57.45
2023-08-04T07:19:08.950Z,61.75
2023-08-04T07:21:55.917Z,63.50
2023-08-04T07:24:35.944Z,62.56
2023-08-04T07:27:22.901Z,63.67
2023-08-04T07:30:11.144Z,63.54
2023-08-04T07:32:58.923Z,56.75
2023-08-04T07:35:45.868Z,51.89
2023-08-04T07:38:33.991Z,56.08
2023-08-04T07:41:13.828Z,56.08
2023-08-04T07:44:00.891Z,55.26
2023-08-04T07:46:40.952Z,59.08
2023-08-04T07:49:27.797Z,58.72
2023-08-04T07:52:07.930Z,56.36
2023-08-04T07:54:54.943Z,57.11
2023-08-04T07:57:41.841Z,56.30
2023-08-04T08:00:22.381Z,52.78
2023-08-04T08:03:08.992Z,51.73
2023-08-04T08:05:49.326Z,54.17
2023-08-04T08:08:35.791Z,57.40
2023-08-04T08:11:22.806Z,56.49
2023-08-04T08:14:02.920Z,56.21
2023-08-04T08:16:49.893Z,55.36
2023-08-04T08:19:29.968Z,55.47
2023-08-04T08:22:16.876Z,55.85
2023-08-04T08:25:01.376Z,57.69
2023-08-04T08:27:47.795Z,57.56
2023-08-04T08:30:27.938Z,56.15
2023-08-04T08:33:14.848Z,58.66
2023-08-04T08:36:01.795Z,56.94
2023-08-04T08:38:42.231Z,57.85
2023-08-04T08:41:28.885Z,56.09
2023-08-04T08:44:17.766Z,57.32
2023-08-04T08:47:04.745Z,57.89
2023-08-04T08:49:52.921Z,57.26
2023-08-04T08:52:43.801Z,58.12
2023-08-04T08:55:32.828Z,56.53
2023-08-04T08:58:13.989Z,51.40
2023-08-04T09:01:00.794Z,52.90
2023-08-04T09:03:54.801Z,54.40
2023-08-04T09:06:41.792Z,53.25
2023-08-04T09:09:22.032Z,53.53
2023-08-04T09:12:10.785Z,58.59
2023-08-04T09:15:05.389Z,57.04
2023-08-04T09:17:52.808Z,53.56
2023-08-04T09:20:36.920Z,52.31
2023-08-04T09:23:23.764Z,57.27
2023-08-04T09:26:10.753Z,52.75
2023-08-04T09:29:05.635Z,53.34
2023-08-04T09:32:01.801Z,51.57
2023-08-04T09:34:45.220Z,49.71
2023-08-04T09:37:31.774Z,49.41
2023-08-04T09:40:20.831Z,49.02
2023-08-04T09:43:11.785Z,50.48
2023-08-04T09:45:59.947Z,54.57
2023-08-04T09:48:46.788Z,59.28
2023-08-04T09:51:33.755Z,63.60
2023-08-04T09:54:15.076Z,63.72
2023-08-04T09:57:02.851Z,67.52
2023-08-04T09:59:43.847Z,70.20
2023-08-04T10:02:32.015Z,67.91
2023-08-04T10:05:18.887Z,60.16
2023-08-04T10:19:42.358Z,63.71
2023-08-04T10:22:29.261Z,64.58
2023-08-04T10:25:20.591Z,64.79
2023-08-04T10:28:07.323Z,63.91
2023-08-04T10:30:51.326Z,63.13
2023-08-04T10:33:38.431Z,60.47
2023-08-04T10:36:26.265Z,60.93
2023-08-04T10:39:29.170Z,60.34
2023-08-04T10:42:23.394Z,58.35
2023-08-04T10:45:10.517Z,58.83
2023-08-04T10:48:10.266Z,56.73
2023-08-04T10:50:51.709Z,57.10
2023-08-04T10:53:44.248Z,54.34
2023-08-04T10:56:36.232Z,53.10
2023-08-04T10:59:25.200Z,54.32
2023-08-04T11:02:12.307Z,52.21
2023-08-04T11:05:01.244Z,48.06
2023-08-04T11:07:49.574Z,50.42
2023-08-04T11:10:29.793Z,48.72
2023-08-04T11:13:16.499Z,45.60
2023-08-04T11:16:03.195Z,47.46
2023-08-04T11:18:57.205Z,45.03
2023-08-04T11:21:45.208Z,42.09
2023-08-04T11:24:37.114Z,46.56
2023-08-04T11:27:17.676Z,49.98
2023-08-04T11:30:08.180Z,48.83
2023-08-04T11:32:52.115Z,51.05
2023-08-04T11:35:42.172Z,44.58
2023-08-04T11:38:29.077Z,57.39
2023-08-04T11:41:17.224Z,62.44
2023-08-04T11:44:07.253Z,60.83
2023-08-04T11:46:47.350Z,64.01
2023-08-04T11:49:36.137Z,60.70
2023-08-04T11:52:29.191Z,61.57
2023-08-04T11:55:09.796Z,58.85
2023-08-04T11:58:06.115Z,57.07
2023-08-04T12:00:53.256Z,62.53
2023-08-04T12:03:48.368Z,60.38
2023-08-04T12:06:28.683Z,59.22
2023-08-04T12:09:15.125Z,55.06
2023-08-04T12:11:55.769Z,58.63
2023-08-04T12:14:59.292Z,55.72
2023-08-04T12:17:57.181Z,57.12
2023-08-04T12:20:40.027Z,56.35
2023-08-04T12:23:28.272Z,54.51
2023-08-04T12:26:08.666Z,51.01
2023-08-04T12:28:55.397Z,62.74
2023-08-04T12:31:35.637Z,55.58
2023-08-04T12:34:24.185Z,63.81
2023-08-04T12:37:13.154Z,68.49
2023-08-04T12:40:00.125Z,69.38
2023-08-04T12:42:40.520Z,64.94
2023-08-04T12:45:27.101Z,67.31
2023-08-04T12:48:14.225Z,67.44
2023-08-04T12:50:54.075Z,61.21
2023-08-04T12:53:35.677Z,60.42
2023-08-04T12:56:22.098Z,64.42
2023-08-04T12:59:10.124Z,67.05
2023-08-04T13:01:50.580Z,58.97
2023-08-04T13:04:39.118Z,61.77
2023-08-04T13:07:26.055Z,63.23
2023-08-04T13:10:07.106Z,61.35
2023-08-04T13:12:54.075Z,65.90
2023-08-04T13:15:41.070Z,66.04
2023-08-04T13:18:28.215Z,60.51
2023-08-04T13:21:12.078Z,49.93
2023-08-04T13:23:59.051Z,55.03
2023-08-04T13:26:46.040Z,56.39
2023-08-04T13:29:26.470Z,58.23
2023-08-04T13:32:14.147Z,58.27
2023-08-04T13:35:01.220Z,58.96
2023-08-04T13:37:41.037Z,54.96
2023-08-04T13:40:28.048Z,60.35
2023-08-04T13:43:08.183Z,56.37
2023-08-04T13:45:55.085Z,57.57
2023-08-04T13:48:42.101Z,57.62
2023-08-04T13:51:27.370Z,57.14
2023-08-04T13:54:15.016Z,58.76
2023-08-04T13:57:02.033Z,59.98
2023-08-04T13:59:42.902Z,61.24
2023-08-04T14:02:30.062Z,57.34
2023-08-04T14:05:10.204Z,61.46
2023-08-04T14:07:57.097Z,64.45
2023-08-04T14:10:38.444Z,62.42
2023-08-04T14:13:25.982Z,62.05
2023-08-04T14:16:25.017Z,64.20
2023-08-04T14:19:13.038Z,65.48
2023-08-04T14:21:52.977Z,63.91
2023-08-04T14:24:39.936Z,66.25
2023-08-04T14:27:31.609Z,61.51
2023-08-04T14:30:19.013Z,62.74
2023-08-04T14:32:59.121Z,58.74
2023-08-04T14:35:45.977Z,62.02
2023-08-04T14:38:33.028Z,63.97
2023-08-04T14:41:13.456Z,62.76
2023-08-04T14:44:01.027Z,63.63
2023-08-04T14:46:48.069Z,64.77
2023-08-04T14:49:27.984Z,63.66
2023-08-04T14:52:08.728Z,66.82
2023-08-04T14:54:56.943Z,67.41
2023-08-04T14:57:44.144Z,68.61
2023-08-04T15:00:24.011Z,65.76
2023-08-04T15:03:10.980Z,65.67
2023-08-04T15:05:51.086Z,67.48
2023-08-04T15:08:37.943Z,66.63
2023-08-04T15:11:19.082Z,64.54
2023-08-04T15:14:06.537Z,64.23
2023-08-04T15:16:47.482Z,66.74
2023-08-04T15:19:35.112Z,67.25
2023-08-04T15:22:15.172Z,63.39
2023-08-04T15:25:01.917Z,63.77
2023-08-04T15:27:42.042Z,66.55
2023-08-04T15:30:28.945Z,65.66
2023-08-04T15:33:18.066Z,66.84
2023-08-04T15:36:00.485Z,68.68
2023-08-04T15:38:46.929Z,69.41
2023-08-04T15:41:28.593Z,64.64
2023-08-04T15:44:18.994Z,65.92
2023-08-04T15:47:00.503Z,71.42
2023-08-04T15:49:46.955Z,72.05
2023-08-04T15:52:27.295Z,74.83
2023-08-04T15:55:14.102Z,75.53
2023-08-04T15:57:55.067Z,77.02
2023-08-04T16:00:42.014Z,78.16
2023-08-04T16:03:29.111Z,80.46
2023-08-04T16:06:10.813Z,79.85
2023-08-04T16:08:57.970Z,81.16
2023-08-04T16:11:45.871Z,81.48
2023-08-04T16:14:26.387Z,82.51
2023-08-04T16:17:12.979Z,85.51
2023-08-04T16:20:00.014Z,88.07
2023-08-04T16:22:39.909Z,89.21
2023-08-04T16:25:26.978Z,91.07
2023-08-04T16:28:07.072Z,92.82
2023-08-04T16:30:53.990Z,93.48
2023-08-04T16:33:40.974Z,94.10
2023-08-04T16:36:22.454Z,93.86
2023-08-04T16:39:09.031Z,94.19
2023-08-04T16:41:55.845Z,96.85
2023-08-04T16:44:36.028Z,98.95
2023-08-04T16:47:23.898Z,100.00
2023-08-04T16:50:12.031Z,100.00
2023-08-04T16:52:58.889Z,100.00
2023-08-04T16:55:46.845Z,100.00
2023-08-04T16:58:34.003Z,100.00
2023-08-04T17:01:19.068Z,100.00
2023-08-04T17:04:06.025Z,100.00
2023-08-04T17:06:46.105Z,100.00
2023-08-04T17:09:32.882Z,100.00
2023-08-04T17:12:12.963Z,100.00
2023-08-04T17:15:00.803Z,100.00
2023-08-04T17:17:47.835Z,100.00
2023-08-04T17:20:41.828Z,100.00
2023-08-04T17:23:28.789Z,100.00
2023-08-04T17:26:16.247Z,100.00
2023-08-04T17:29:02.854Z,100.00
2023-08-04T17:31:45.781Z,100.00
2023-08-04T17:34:35.848Z,100.00
2023-08-04T17:37:15.926Z,100.00
2023-08-04T17:40:02.932Z,100.00
2023-08-04T17:42:49.958Z,100.00
2023-08-04T17:45:36.842Z,100.00
2023-08-04T17:48:23.849Z,100.00
2023-08-04T17:51:04.603Z,100.00
2023-08-04T17:53:51.836Z,100.00
2023-08-04T17:56:38.819Z,100.00
2023-08-04T17:59:25.901Z,100.00
2023-08-04T18:02:13.838Z,100.00
2023-08-04T18:04:55.973Z,100.00
2023-08-04T18:07:42.827Z,100.00
2023-08-04T18:10:22.941Z,100.00
2023-08-04T18:13:09.773Z,100.00
2023-08-04T18:15:52.155Z,100.00
2023-08-04T18:18:38.903Z,100.00
2023-08-04T18:21:19.014Z,100.00
2023-08-04T18:24:05.693Z,100.00
2023-08-04T18:26:47.265Z,100.00
2023-08-04T18:29:34.844Z,100.00
2023-08-04T18:32:14.911Z,100.00
2023-08-04T18:35:01.787Z,100.00
2023-08-04T18:37:42.004Z,100.00
2023-08-04T18:40:28.895Z,100.00
2023-08-04T18:43:08.858Z,100.00
2023-08-04T18:45:55.772Z,100.00
2023-08-04T18:48:42.783Z,100.00
2023-08-04T18:51:30.717Z,100.00
2023-08-04T18:54:17.705Z,100.00
2023-08-04T18:57:04.743Z,100.00
2023-08-04T18:59:44.822Z,100.00
2023-08-04T19:02:31.751Z,100.00
2023-08-04T19:05:11.846Z,100.00
2023-08-04T19:07:58.658Z,100.00
2023-08-04T19:10:39.077Z,100.00
2023-08-04T19:13:25.731Z,100.00
2023-08-04T19:16:12.784Z,100.00
2023-08-04T19:18:59.876Z,100.00
2023-08-04T19:21:39.711Z,100.00
2023-08-04T19:24:29.883Z,100.00
2023-08-04T19:27:16.688Z,100.00
2023-08-04T19:29:57.068Z,100.00
2023-08-04T19:32:43.733Z,100.00
2023-08-04T19:35:24.173Z,100.00
2023-08-04T19:38:10.654Z,100.00
2023-08-04T19:40:57.990Z,100.00
2023-08-04T19:43:44.669Z,100.00
2023-08-04T19:46:25.184Z,100.00
2023-08-04T19:49:11.726Z,100.00
2023-08-04T19:51:55.060Z,100.00
2023-08-04T19:54:41.755Z,100.00
2023-08-04T19:57:22.060Z,100.00
2023-08-04T20:00:09.636Z,100.00
2023-08-04T20:02:51.379Z,100.00
2023-08-04T20:05:41.347Z,100.00
2023-08-04T20:08:22.241Z,100.00
2023-08-04T20:11:14.609Z,100.00
2023-08-04T20:14:05.533Z,100.00
2023-08-04T20:16:45.601Z,100.00
2023-08-04T20:19:25.997Z,100.00
2023-08-04T20:22:12.633Z,100.00
2023-08-04T20:24:53.074Z,100.00
2023-08-04T20:27:32.597Z,100.00
2023-08-04T20:30:20.653Z,100.00
2023-08-04T20:33:07.748Z,100.00
2023-08-04T20:35:47.698Z,100.00
2023-08-04T20:38:36.873Z,100.00
2023-08-04T20:41:25.618Z,100.00
2023-08-04T20:44:05.978Z,100.00
2023-08-04T20:46:52.793Z,100.00
2023-08-04T20:49:39.601Z,100.00
2023-08-04T20:52:26.637Z,100.00
2023-08-04T20:55:07.437Z,100.00
2023-08-04T20:57:54.574Z,100.00
2023-08-04T21:00:41.567Z,100.00
2023-08-04T21:03:28.622Z,100.00
2023-08-04T21:06:15.572Z,100.00
2023-08-04T21:08:55.914Z,100.00
2023-08-04T21:11:42.548Z,100.00
2023-08-04T21:14:22.700Z,100.00
2023-08-04T21:17:09.536Z,100.00
2023-08-04T21:19:56.654Z,100.00
2023-08-04T21:22:36.585Z,100.00
2023-08-04T21:25:16.993Z,100.00
2023-08-04T21:28:03.582Z,100.00
2023-08-04T21:30:46.873Z,100.00
2023-08-04T21:33:34.623Z,100.00
2023-08-04T21:36:15.028Z,100.00
2023-08-04T21:39:01.600Z,100.00
2023-08-04T21:41:48.508Z,100.00
2023-08-04T21:44:28.605Z,100.00
2023-08-04T21:47:15.516Z,100.00
2023-08-04T21:49:58.643Z,100.00
2023-08-04T21:52:45.570Z,100.00
2023-08-04T21:55:32.536Z,100.00
2023-08-04T21:58:12.880Z,100.00
2023-08-04T22:00:59.567Z,100.00
